createdAt,value
2023-04-17T00:00:40.174Z,1.81
2023-04-17T00:01:42.690Z,1.86
2023-04-17T00:02:44.579Z,1.68
2023-04-17T00:03:46.534Z,2.33
2023-04-17T00:04:48.730Z,1.72
2023-04-17T00:05:50.793Z,1.85
2023-04-17T00:06:52.594Z,1.73
2023-04-17T00:07:54.420Z,1.69
2023-04-17T00:08:56.238Z,2.04
2023-04-17T00:09:58.032Z,1.94
2023-04-17T00:11:07.181Z,1.77
2023-04-17T00:12:03.482Z,1.83
2023-04-17T00:13:05.291Z,1.54
2023-04-17T00:14:07.086Z,1.86
2023-04-17T00:15:08.876Z,1.80
2023-04-17T00:16:11.145Z,1.79
2023-04-17T00:17:12.955Z,2.40
2023-04-17T00:18:14.754Z,1.84
2023-04-17T00:19:16.858Z,1.91
2023-04-17T00:20:18.686Z,1.72
2023-04-17T00:21:20.513Z,1.81
2023-04-17T00:22:22.319Z,2.02
2023-04-17T00:23:24.137Z,1.89
2023-04-17T00:24:25.932Z,1.84
2023-04-17T00:25:27.759Z,1.97
2023-04-17T00:26:29.567Z,1.75
2023-04-17T00:27:31.374Z,2.09
2023-04-17T00:28:33.195Z,2.04
2023-04-17T00:29:34.989Z,2.22
2023-04-17T00:30:36.896Z,1.81
2023-04-17T00:31:38.784Z,1.79
2023-04-17T00:32:40.627Z,1.98
2023-04-17T00:33:42.374Z,2.00
2023-04-17T00:34:44.156Z,1.84
2023-04-17T00:35:45.956Z,1.81
2023-04-17T00:36:47.814Z,1.85
2023-04-17T00:37:49.635Z,1.79
2023-04-17T00:38:51.440Z,2.47
2023-04-17T00:39:53.247Z,2.08
2023-04-17T00:40:55.064Z,2.11
2023-04-17T00:41:56.906Z,1.93
2023-04-17T00:42:58.713Z,2.29
2023-04-17T00:44:00.518Z,2.31
2023-04-17T00:45:02.352Z,2.09
2023-04-17T00:46:04.238Z,2.25
2023-04-17T00:47:06.143Z,2.14
2023-04-17T00:48:07.982Z,2.52
2023-04-17T00:49:09.825Z,2.10
2023-04-17T00:50:12.468Z,2.78
2023-04-17T00:51:14.273Z,2.19
2023-04-17T00:52:16.128Z,2.22
2023-04-17T00:53:17.978Z,2.33
2023-04-17T00:54:19.737Z,2.05
2023-04-17T00:55:21.565Z,2.09
2023-04-17T00:56:23.350Z,1.91
2023-04-17T00:57:25.187Z,2.11
2023-04-17T00:58:26.981Z,1.73
2023-04-17T00:59:28.796Z,1.96
2023-04-17T01:00:30.580Z,2.56
2023-04-17T01:01:32.474Z,2.07
2023-04-17T01:02:34.472Z,2.39
2023-04-17T01:03:36.530Z,2.20
2023-04-17T01:04:38.563Z,2.39
2023-04-17T01:05:40.359Z,2.05
2023-04-17T01:06:42.204Z,2.40
2023-04-17T01:07:44.055Z,2.18
2023-04-17T01:08:45.905Z,2.13
2023-04-17T01:09:47.688Z,2.04
2023-04-17T01:10:49.489Z,2.39
2023-04-17T01:11:51.334Z,2.05
2023-04-17T01:12:53.184Z,2.28
2023-04-17T01:13:54.984Z,2.34
2023-04-17T01:14:56.782Z,2.17
2023-04-17T01:15:58.592Z,2.31
2023-04-17T01:17:00.535Z,2.17
2023-04-17T01:18:02.425Z,2.00
2023-04-17T01:19:04.234Z,2.67
2023-04-17T01:20:06.260Z,2.39
2023-04-17T01:21:08.066Z,1.81
2023-04-17T01:22:09.865Z,1.97
2023-04-17T01:23:11.748Z,2.28
2023-04-17T01:24:13.518Z,2.31
2023-04-17T01:25:15.329Z,2.02
2023-04-17T01:26:17.141Z,2.12
2023-04-17T01:27:18.935Z,2.71
2023-04-17T01:28:20.786Z,2.62
2023-04-17T01:29:22.608Z,2.14
2023-04-17T01:30:24.422Z,2.50
2023-04-17T01:31:26.344Z,2.30
2023-04-17T01:32:28.342Z,2.29
2023-04-17T01:33:30.164Z,2.53
2023-04-17T01:34:31.997Z,2.24
2023-04-17T01:35:33.797Z,2.22
2023-04-17T01:36:35.594Z,2.29
2023-04-17T01:37:37.415Z,2.06
2023-04-17T01:38:39.274Z,2.03
2023-04-17T01:39:41.060Z,2.04
2023-04-17T01:40:42.959Z,2.02
2023-04-17T01:41:44.758Z,2.05
2023-04-17T01:42:46.567Z,1.89
2023-04-17T01:43:48.417Z,2.04
2023-04-17T01:44:50.117Z,2.23
2023-04-17T01:45:51.970Z,2.09
2023-04-17T01:46:53.870Z,2.11
2023-04-17T01:47:55.698Z,2.09
2023-04-17T01:48:57.532Z,2.28
2023-04-17T01:49:59.330Z,2.31
2023-04-17T01:51:01.126Z,1.87
2023-04-17T01:52:02.934Z,2.03
2023-04-17T01:53:04.752Z,2.05
2023-04-17T01:54:06.603Z,1.95
2023-04-17T01:55:08.420Z,1.79
2023-04-17T01:56:10.310Z,2.09
2023-04-17T01:57:12.154Z,2.13
2023-04-17T01:58:13.970Z,2.22
2023-04-17T01:59:15.786Z,1.83
2023-04-17T02:00:17.790Z,2.02
2023-04-17T02:01:20.952Z,2.10
2023-04-17T02:02:22.944Z,1.90
2023-04-17T02:03:25.045Z,1.87
2023-04-17T02:04:27.164Z,2.19
2023-04-17T02:05:29.111Z,2.06
2023-04-17T02:06:30.910Z,1.86
2023-04-17T02:07:32.735Z,1.83
2023-04-17T02:08:34.548Z,1.83
2023-04-17T02:09:36.414Z,2.09
2023-04-17T02:10:38.231Z,2.09
2023-04-17T02:11:40.057Z,2.03
2023-04-17T02:12:41.842Z,2.18
2023-04-17T02:13:43.656Z,1.95
2023-04-17T02:14:45.494Z,1.81
2023-04-17T02:15:47.336Z,2.10
2023-04-17T02:16:49.118Z,1.72
2023-04-17T02:17:50.977Z,1.86
2023-04-17T02:18:52.758Z,2.06
2023-04-17T02:19:54.610Z,2.39
2023-04-17T02:20:56.413Z,2.07
2023-04-17T02:21:58.225Z,2.22
2023-04-17T02:23:00.027Z,2.15
2023-04-17T02:24:01.833Z,1.66
2023-04-17T02:25:03.569Z,1.95
2023-04-17T02:26:05.579Z,2.07
2023-04-17T02:27:07.380Z,1.93
2023-04-17T02:28:09.195Z,3.45
2023-04-17T02:29:11.245Z,2.14
2023-04-17T02:30:13.482Z,2.28
2023-04-17T02:31:15.318Z,1.93
2023-04-17T02:32:17.112Z,2.07
2023-04-17T02:33:18.993Z,1.89
2023-04-17T02:34:20.810Z,2.26
2023-04-17T02:35:22.663Z,1.79
2023-04-17T02:36:24.485Z,1.84
2023-04-17T02:37:26.264Z,1.94
2023-04-17T02:38:28.062Z,2.16
2023-04-17T02:39:29.878Z,1.99
2023-04-17T02:40:31.736Z,1.83
2023-04-17T02:41:33.529Z,1.74
2023-04-17T02:42:35.334Z,1.78
2023-04-17T02:43:37.138Z,1.94
2023-04-17T02:44:39.996Z,1.82
2023-04-17T02:45:41.859Z,2.20
2023-04-17T02:46:43.696Z,1.76
2023-04-17T02:47:45.543Z,1.67
2023-04-17T02:48:47.360Z,1.83
2023-04-17T02:49:49.171Z,2.03
2023-04-17T02:50:51.018Z,2.04
2023-04-17T02:51:52.802Z,1.83
2023-04-17T02:52:54.599Z,1.67
2023-04-17T02:53:56.406Z,1.82
2023-04-17T02:54:58.231Z,2.11
2023-04-17T02:56:00.057Z,1.65
2023-04-17T02:57:01.875Z,1.85
2023-04-17T02:58:03.758Z,1.95
2023-04-17T02:59:05.561Z,2.13
2023-04-17T03:00:07.384Z,1.96
2023-04-17T03:01:09.252Z,2.09
2023-04-17T03:02:11.153Z,1.74
2023-04-17T03:03:13.164Z,1.66
2023-04-17T03:04:15.090Z,1.77
2023-04-17T03:05:16.851Z,2.09
2023-04-17T03:06:18.725Z,2.11
2023-04-17T03:07:20.539Z,1.67
2023-04-17T03:08:22.330Z,1.64
2023-04-17T03:09:24.129Z,2.17
2023-04-17T03:10:25.931Z,1.97
2023-04-17T03:11:27.825Z,1.71
2023-04-17T03:12:29.633Z,1.78
2023-04-17T03:13:31.490Z,2.13
2023-04-17T03:14:33.262Z,2.07
2023-04-17T03:15:35.074Z,1.71
2023-04-17T03:16:36.939Z,1.79
2023-04-17T03:17:38.882Z,1.99
2023-04-17T03:18:40.774Z,1.89
2023-04-17T03:19:42.577Z,2.12
2023-04-17T03:20:44.377Z,2.14
2023-04-17T03:21:46.228Z,1.87
2023-04-17T03:22:48.028Z,2.25
2023-04-17T03:23:49.824Z,2.09
2023-04-17T03:24:51.625Z,1.87
2023-04-17T03:25:53.443Z,2.14
2023-04-17T03:26:55.278Z,1.89
2023-04-17T03:27:57.074Z,1.83
2023-04-17T03:28:58.871Z,1.97
2023-04-17T03:30:00.682Z,1.84
2023-04-17T03:31:02.530Z,1.91
2023-04-17T03:32:04.489Z,2.19
2023-04-17T03:33:06.342Z,2.12
2023-04-17T03:34:08.217Z,2.01
2023-04-17T03:35:10.024Z,1.91
2023-04-17T03:36:11.892Z,2.01
2023-04-17T03:37:13.718Z,1.75
2023-04-17T03:38:15.540Z,2.06
2023-04-17T03:39:17.335Z,1.82
2023-04-17T03:40:19.139Z,2.28
2023-04-17T03:41:20.934Z,2.17
2023-04-17T03:42:22.779Z,2.08
2023-04-17T03:43:24.693Z,1.83
2023-04-17T03:44:26.490Z,1.99
2023-04-17T03:45:28.298Z,1.87
2023-04-17T03:46:30.308Z,2.19
2023-04-17T03:47:32.287Z,1.97
2023-04-17T03:48:34.058Z,1.47
2023-04-17T03:49:35.849Z,1.55
2023-04-17T03:50:37.668Z,2.03
2023-04-17T03:51:39.466Z,2.03
2023-04-17T03:52:41.309Z,2.25
2023-04-17T03:53:43.085Z,2.04
2023-04-17T03:54:44.916Z,2.05
2023-04-17T03:55:46.715Z,2.17
2023-04-17T03:56:48.521Z,2.11
2023-04-17T03:57:50.980Z,2.03
2023-04-17T03:58:52.795Z,2.29
2023-04-17T03:59:54.586Z,1.75
2023-04-17T04:00:56.514Z,1.99
2023-04-17T04:01:58.494Z,2.17
2023-04-17T04:03:00.580Z,2.26
2023-04-17T04:04:02.444Z,2.31
2023-04-17T04:05:04.418Z,2.27
2023-04-17T04:06:06.213Z,1.83
2023-04-17T04:07:07.998Z,2.14
2023-04-17T04:08:09.852Z,2.14
2023-04-17T04:09:11.820Z,2.15
2023-04-17T04:10:14.803Z,2.59
2023-04-17T04:11:16.598Z,2.33
2023-04-17T04:12:18.400Z,2.33
2023-04-17T04:13:20.242Z,2.43
2023-04-17T04:14:22.049Z,2.41
2023-04-17T04:15:23.906Z,2.63
2023-04-17T04:16:25.744Z,2.73
2023-04-17T04:17:27.552Z,2.34
2023-04-17T04:18:29.393Z,2.44
2023-04-17T04:19:31.186Z,2.43
2023-04-17T04:20:32.986Z,2.65
2023-04-17T04:21:34.828Z,2.49
2023-04-17T04:22:36.662Z,2.13
2023-04-17T04:23:38.527Z,2.02
2023-04-17T04:24:40.309Z,1.99
2023-04-17T04:25:42.131Z,1.85
2023-04-17T04:26:44.024Z,2.01
2023-04-17T04:27:45.815Z,1.85
2023-04-17T04:28:47.683Z,2.13
2023-04-17T04:29:49.974Z,1.89
2023-04-17T04:30:51.871Z,1.97
2023-04-17T04:31:53.796Z,2.23
2023-04-17T04:32:55.714Z,2.28
2023-04-17T04:33:57.510Z,2.09
2023-04-17T04:34:59.311Z,2.27
2023-04-17T04:36:01.399Z,2.38
2023-04-17T04:37:03.567Z,1.74
2023-04-17T04:38:05.364Z,1.71
2023-04-17T04:39:07.194Z,2.01
2023-04-17T04:40:09.710Z,1.68
2023-04-17T04:41:11.508Z,1.88
2023-04-17T04:42:13.333Z,2.06
2023-04-17T04:43:15.134Z,2.14
2023-04-17T04:44:16.985Z,2.03
2023-04-17T04:45:18.806Z,2.07
2023-04-17T04:46:20.669Z,1.74
2023-04-17T04:47:22.551Z,2.01
2023-04-17T04:48:24.325Z,1.79
2023-04-17T04:49:26.177Z,1.99
2023-04-17T04:50:27.975Z,2.03
2023-04-17T04:51:29.773Z,1.94
2023-04-17T04:52:31.602Z,2.41
2023-04-17T04:53:33.404Z,1.93
2023-04-17T04:54:35.260Z,1.70
2023-04-17T04:55:37.075Z,2.21
2023-04-17T04:56:38.881Z,1.75
2023-04-17T04:57:40.676Z,2.31
2023-04-17T04:58:42.492Z,2.37
2023-04-17T04:59:44.342Z,1.96
2023-04-17T05:00:46.210Z,1.78
2023-04-17T05:01:47.981Z,2.23
2023-04-17T05:02:49.941Z,1.91
2023-04-17T05:03:52.106Z,1.71
2023-04-17T05:04:54.158Z,1.87
2023-04-17T05:05:55.918Z,1.73
2023-04-17T05:06:57.790Z,1.64
2023-04-17T05:07:59.474Z,1.49
2023-04-17T05:09:01.274Z,1.63
2023-04-17T05:10:03.114Z,1.76
2023-04-17T05:11:04.809Z,1.75
2023-04-17T05:12:06.636Z,1.64
2023-04-17T05:13:08.442Z,1.50
2023-04-17T05:14:10.243Z,1.54
2023-04-17T05:15:12.119Z,1.73
2023-04-17T05:16:14.162Z,1.69
2023-04-17T05:17:15.932Z,1.90
2023-04-17T05:18:17.746Z,1.69
2023-04-17T05:19:19.547Z,1.67
2023-04-17T05:20:21.514Z,1.79
2023-04-17T05:21:23.328Z,1.30
2023-04-17T05:22:25.131Z,1.49
2023-04-17T05:23:26.948Z,1.47
2023-04-17T05:24:28.772Z,1.73
2023-04-17T05:25:30.601Z,1.61
2023-04-17T05:26:32.416Z,1.74
2023-04-17T05:27:34.217Z,1.57
2023-04-17T05:28:35.917Z,1.57
2023-04-17T05:29:37.735Z,1.43
2023-04-17T05:30:39.578Z,1.19
2023-04-17T05:31:41.423Z,1.35
2023-04-17T05:32:43.283Z,1.41
2023-04-17T05:33:45.098Z,1.91
2023-04-17T05:34:46.919Z,1.61
2023-04-17T05:35:48.867Z,1.64
2023-04-17T05:36:50.678Z,1.37
2023-04-17T05:37:52.474Z,1.75
2023-04-17T05:38:54.308Z,1.51
2023-04-17T05:39:56.103Z,1.63
2023-04-17T05:40:57.945Z,1.56
2023-04-17T05:41:59.746Z,1.50
2023-04-17T05:43:01.540Z,1.47
2023-04-17T05:44:03.357Z,1.53
2023-04-17T05:45:05.175Z,1.71
2023-04-17T05:46:07.182Z,1.19
2023-04-17T05:47:08.919Z,1.32
2023-04-17T05:48:10.765Z,1.47
2023-04-17T05:49:12.735Z,1.42
2023-04-17T05:50:16.194Z,1.64
2023-04-17T05:51:18.015Z,1.39
2023-04-17T05:52:19.832Z,1.47
2023-04-17T05:53:21.649Z,1.49
2023-04-17T05:54:23.453Z,1.41
2023-04-17T05:55:25.180Z,1.61
2023-04-17T05:56:27.028Z,1.44
2023-04-17T05:57:28.864Z,1.41
2023-04-17T05:58:30.674Z,1.91
2023-04-17T05:59:32.486Z,1.34
2023-04-17T06:00:34.300Z,1.62
2023-04-17T06:01:36.154Z,1.40
2023-04-17T06:02:38.168Z,1.40
2023-04-17T06:03:40.206Z,1.33
2023-04-17T06:04:42.402Z,1.40
2023-04-17T06:05:44.467Z,2.28
2023-04-17T06:06:46.270Z,2.51
2023-04-17T06:07:48.073Z,1.93
2023-04-17T06:08:49.882Z,1.57
2023-04-17T06:09:51.589Z,1.52
2023-04-17T06:10:53.396Z,1.43
2023-04-17T06:11:55.314Z,1.30
2023-04-17T06:12:57.065Z,1.30
2023-04-17T06:13:58.846Z,1.93
2023-04-17T06:15:01.029Z,1.45
2023-04-17T06:16:03.169Z,1.29
2023-04-17T06:17:05.086Z,1.34
2023-04-17T06:18:07.105Z,1.35
2023-04-17T06:19:09.430Z,1.53
2023-04-17T06:20:11.874Z,1.09
2023-04-17T06:21:13.563Z,1.45
2023-04-17T06:22:15.271Z,1.48
2023-04-17T06:23:17.082Z,1.25
2023-04-17T06:24:18.964Z,0.94
2023-04-17T06:25:20.789Z,1.25
2023-04-17T06:26:22.601Z,1.29
2023-04-17T06:27:24.489Z,1.63
2023-04-17T06:28:26.285Z,1.47
2023-04-17T06:29:28.094Z,1.07
2023-04-17T06:30:29.927Z,1.13
2023-04-17T06:31:31.830Z,1.21
2023-04-17T06:32:33.932Z,2.48
2023-04-17T06:33:35.779Z,1.01
2023-04-17T06:34:46.041Z,1.25
2023-04-17T06:35:42.423Z,1.44
2023-04-17T06:36:44.205Z,1.17
2023-04-17T06:37:46.045Z,1.19
2023-04-17T06:38:47.844Z,2.06
2023-04-17T06:39:49.667Z,1.45
2023-04-17T06:40:52.577Z,1.60
2023-04-17T06:41:54.585Z,1.24
2023-04-17T06:42:56.428Z,1.83
2023-04-17T06:43:58.228Z,2.11
2023-04-17T06:45:00.040Z,3.38
2023-04-17T06:46:01.901Z,2.39
2023-04-17T06:47:03.669Z,3.22
2023-04-17T06:48:05.770Z,5.29
2023-04-17T06:49:07.664Z,3.47
2023-04-17T06:50:09.467Z,2.72
2023-04-17T06:51:12.296Z,1.73
2023-04-17T06:52:14.129Z,1.65
2023-04-17T06:53:16.074Z,2.89
2023-04-17T06:54:17.884Z,2.36
2023-04-17T06:55:19.814Z,2.29
2023-04-17T06:56:21.590Z,3.14
2023-04-17T06:57:23.390Z,4.99
2023-04-17T06:58:25.207Z,1.85
2023-04-17T06:59:27.022Z,1.39
2023-04-17T07:00:28.830Z,1.04
2023-04-17T07:01:30.783Z,1.35
2023-04-17T07:02:32.743Z,2.01
2023-04-17T07:03:34.770Z,1.52
2023-04-17T07:04:36.907Z,1.82
2023-04-17T07:05:38.698Z,1.83
2023-04-17T07:06:40.500Z,1.55
2023-04-17T07:07:42.312Z,1.12
2023-04-17T07:08:44.468Z,1.29
2023-04-17T07:09:46.316Z,1.42
2023-04-17T07:10:48.089Z,1.30
2023-04-17T07:11:49.908Z,1.45
2023-04-17T07:12:51.677Z,1.54
2023-04-17T07:13:53.541Z,1.33
2023-04-17T07:14:55.347Z,1.88
2023-04-17T07:15:57.186Z,1.56
2023-04-17T07:16:59.224Z,1.37
2023-04-17T07:18:01.106Z,0.95
2023-04-17T07:19:02.917Z,1.29
2023-04-17T07:20:05.148Z,1.47
2023-04-17T07:21:06.986Z,1.72
2023-04-17T07:22:08.774Z,1.09
2023-04-17T07:23:10.584Z,1.19
2023-04-17T07:24:12.417Z,1.11
2023-04-17T07:25:14.297Z,1.51
2023-04-17T07:26:16.089Z,1.41
2023-04-17T07:27:17.884Z,1.62
2023-04-17T07:28:19.693Z,1.86
2023-04-17T07:29:21.519Z,1.52
2023-04-17T07:30:23.353Z,1.13
2023-04-17T07:31:25.219Z,1.36
2023-04-17T07:32:27.012Z,1.19
2023-04-17T07:33:28.776Z,0.92
2023-04-17T07:34:30.620Z,1.18
2023-04-17T07:35:32.433Z,1.61
2023-04-17T07:36:34.240Z,1.41
2023-04-17T07:37:36.042Z,1.24
2023-04-17T07:38:40.328Z,1.33
2023-04-17T07:39:41.496Z,1.52
2023-04-17T07:40:43.292Z,1.31
2023-04-17T07:41:45.153Z,1.21
2023-04-17T07:42:46.884Z,1.09
2023-04-17T07:43:48.687Z,1.47
2023-04-17T07:44:50.548Z,1.67
2023-04-17T07:45:52.335Z,1.25
2023-04-17T07:46:54.181Z,1.29
2023-04-17T07:47:55.999Z,1.20
2023-04-17T07:48:57.766Z,1.33
2023-04-17T07:49:59.620Z,1.28
2023-04-17T07:51:01.489Z,1.28
2023-04-17T07:52:03.283Z,1.79
2023-04-17T07:53:05.083Z,1.44
2023-04-17T07:54:06.884Z,1.23
2023-04-17T07:55:08.750Z,1.57
2023-04-17T07:56:12.681Z,1.41
2023-04-17T07:57:14.245Z,1.52
2023-04-17T07:58:16.049Z,1.24
2023-04-17T07:59:17.874Z,1.75
2023-04-17T08:00:19.839Z,1.67
2023-04-17T08:01:21.657Z,1.53
2023-04-17T08:02:23.606Z,1.44
2023-04-17T08:03:25.737Z,1.23
2023-04-17T08:04:27.950Z,1.29
2023-04-17T08:05:30.136Z,1.38
2023-04-17T08:06:31.988Z,1.34
2023-04-17T08:07:33.795Z,2.00
2023-04-17T08:08:35.616Z,2.52
2023-04-17T08:09:37.445Z,3.25
2023-04-17T08:10:39.278Z,2.09
2023-04-17T08:11:55.660Z,1.79
2023-04-17T08:12:45.314Z,1.55
2023-04-17T08:13:47.115Z,2.18
2023-04-17T08:14:48.928Z,2.04
2023-04-17T08:15:50.765Z,1.82
2023-04-17T08:16:52.711Z,1.16
2023-04-17T08:17:54.658Z,1.19
2023-04-17T08:18:56.518Z,3.76
2023-04-17T08:19:58.439Z,2.14
2023-04-17T08:21:00.312Z,1.69
2023-04-17T08:22:02.123Z,1.41
2023-04-17T08:23:03.934Z,1.47
2023-04-17T08:24:05.762Z,1.19
2023-04-17T08:25:07.574Z,1.09
2023-04-17T08:26:09.501Z,1.07
2023-04-17T08:27:11.315Z,1.57
2023-04-17T08:28:13.070Z,1.69
2023-04-17T08:29:15.111Z,1.61
2023-04-17T08:30:18.757Z,1.49
2023-04-17T08:31:20.654Z,3.01
2023-04-17T08:32:22.562Z,1.45
2023-04-17T08:33:24.353Z,1.29
2023-04-17T08:34:26.159Z,1.32
2023-04-17T08:35:27.961Z,1.60
2023-04-17T08:36:29.792Z,1.51
2023-04-17T08:37:31.599Z,1.31
2023-04-17T08:38:33.413Z,1.14
2023-04-17T08:39:35.221Z,1.34
2023-04-17T08:40:37.028Z,1.40
2023-04-17T08:41:38.872Z,1.12
2023-04-17T08:42:40.681Z,1.08
2023-04-17T08:43:42.507Z,1.85
2023-04-17T08:44:44.325Z,1.49
2023-04-17T08:45:46.168Z,1.40
2023-04-17T08:46:48.026Z,1.26
2023-04-17T08:47:49.903Z,1.72
2023-04-17T08:48:52.305Z,1.51
2023-04-17T08:49:54.139Z,1.79
2023-04-17T08:50:55.957Z,1.25
2023-04-17T08:51:57.791Z,1.44
2023-04-17T08:52:59.622Z,1.35
2023-04-17T08:54:01.440Z,1.33
2023-04-17T08:55:03.222Z,1.45
2023-04-17T08:56:06.893Z,1.48
2023-04-17T08:57:08.765Z,1.22
2023-04-17T08:58:10.565Z,1.57
2023-04-17T08:59:12.651Z,1.41
2023-04-17T09:00:14.724Z,1.86
2023-04-17T09:01:16.649Z,1.43
2023-04-17T09:02:18.699Z,1.50
2023-04-17T09:03:20.954Z,1.54
2023-04-17T09:04:22.984Z,1.45
2023-04-17T09:05:24.928Z,1.30
2023-04-17T09:06:26.734Z,1.77
2023-04-17T09:07:28.593Z,1.45
2023-04-17T09:08:30.389Z,1.45
2023-04-17T09:09:32.192Z,1.48
2023-04-17T09:10:34.065Z,1.38
2023-04-17T09:11:35.889Z,1.58
2023-04-17T09:12:37.717Z,1.67
2023-04-17T09:13:39.524Z,1.28
2023-04-17T09:14:41.334Z,1.39
2023-04-17T09:15:43.181Z,1.45
2023-04-17T09:16:45.061Z,1.22
2023-04-17T09:17:46.958Z,1.10
2023-04-17T09:18:48.888Z,1.57
2023-04-17T09:19:50.724Z,1.36
2023-04-17T09:20:52.517Z,1.62
2023-04-17T09:21:54.319Z,2.07
2023-04-17T09:22:56.135Z,1.58
2023-04-17T09:23:57.937Z,1.07
2023-04-17T09:24:59.746Z,1.56
2023-04-17T09:26:01.578Z,1.79
2023-04-17T09:27:03.368Z,1.89
2023-04-17T09:28:05.204Z,1.20
2023-04-17T09:29:07.007Z,1.16
2023-04-17T09:30:09.422Z,1.11
2023-04-17T09:31:12.385Z,1.47
2023-04-17T09:32:14.350Z,1.36
2023-04-17T09:33:16.203Z,1.19
2023-04-17T09:34:17.895Z,1.35
2023-04-17T09:35:19.610Z,1.36
2023-04-17T09:36:22.217Z,1.33
2023-04-17T09:37:24.287Z,1.27
2023-04-17T09:38:26.119Z,1.44
2023-04-17T09:39:27.916Z,1.26
2023-04-17T09:40:29.726Z,1.30
2023-04-17T09:41:31.539Z,1.21
2023-04-17T09:42:33.238Z,1.61
2023-04-17T09:43:35.068Z,1.28
2023-04-17T09:44:36.984Z,1.40
2023-04-17T09:45:38.872Z,1.11
2023-04-17T09:46:40.775Z,1.32
2023-04-17T09:47:42.505Z,1.56
2023-04-17T09:48:44.313Z,1.17
2023-04-17T09:49:46.121Z,1.25
2023-04-17T09:50:47.914Z,1.20
2023-04-17T09:51:49.728Z,1.03
2023-04-17T09:52:51.509Z,1.31
2023-04-17T09:53:53.342Z,1.10
2023-04-17T09:54:55.150Z,1.04
2023-04-17T09:55:56.955Z,1.22
2023-04-17T09:56:58.778Z,1.21
2023-04-17T09:58:00.576Z,0.91
2023-04-17T09:59:02.428Z,1.37
2023-04-17T10:00:04.252Z,1.25
2023-04-17T10:01:06.109Z,1.42
2023-04-17T10:02:08.111Z,1.11
2023-04-17T10:03:10.208Z,1.27
2023-04-17T10:04:12.672Z,1.32
2023-04-17T10:05:15.000Z,1.18
2023-04-17T10:06:16.922Z,1.39
2023-04-17T10:07:18.728Z,1.11
2023-04-17T10:08:20.516Z,1.11
2023-04-17T10:09:22.344Z,1.14
2023-04-17T10:10:24.141Z,0.97
2023-04-17T10:11:25.947Z,1.34
2023-04-17T10:12:27.784Z,1.27
2023-04-17T10:13:29.590Z,1.02
2023-04-17T10:14:31.448Z,1.04
2023-04-17T10:15:33.242Z,1.34
2023-04-17T10:16:35.122Z,1.02
2023-04-17T10:17:36.913Z,1.14
2023-04-17T10:18:38.721Z,0.93
2023-04-17T10:19:40.520Z,1.04
2023-04-17T10:20:42.340Z,1.17
2023-04-17T10:21:44.142Z,1.62
2023-04-17T10:22:45.987Z,1.09
2023-04-17T10:23:47.769Z,1.03
2023-04-17T10:24:49.645Z,1.07
2023-04-17T10:25:51.474Z,1.45
2023-04-17T10:26:53.310Z,1.31
2023-04-17T10:27:55.126Z,1.14
2023-04-17T10:28:56.949Z,1.09
2023-04-17T10:29:58.781Z,0.90
2023-04-17T10:31:00.700Z,1.07
2023-04-17T10:32:02.509Z,1.71
2023-04-17T10:33:04.321Z,1.17
2023-04-17T10:34:06.096Z,1.11
2023-04-17T10:35:07.978Z,1.36
2023-04-17T10:36:10.629Z,1.04
2023-04-17T10:37:12.461Z,1.48
2023-04-17T10:38:14.247Z,1.19
2023-04-17T10:39:16.091Z,1.17
2023-04-17T10:40:17.891Z,1.14
2023-04-17T10:41:19.713Z,0.97
2023-04-17T10:42:21.506Z,1.27
2023-04-17T10:43:23.320Z,1.37
2023-04-17T10:44:25.313Z,0.98
2023-04-17T10:45:27.154Z,1.23
2023-04-17T10:46:29.099Z,1.54
2023-04-17T10:47:31.003Z,1.16
2023-04-17T10:48:32.808Z,1.63
2023-04-17T10:49:34.688Z,1.39
2023-04-17T10:50:36.592Z,1.03
2023-04-17T10:51:38.391Z,1.07
2023-04-17T10:52:40.382Z,1.97
2023-04-17T10:53:42.521Z,1.26
2023-04-17T10:54:44.333Z,1.37
2023-04-17T10:55:46.194Z,1.16
2023-04-17T10:56:47.996Z,1.05
2023-04-17T10:57:49.781Z,1.09
2023-04-17T10:58:51.581Z,1.05
2023-04-17T10:59:53.383Z,1.19
2023-04-17T11:00:55.302Z,1.11
2023-04-17T11:01:57.221Z,1.36
2023-04-17T11:02:59.124Z,1.10
2023-04-17T11:04:01.009Z,1.11
2023-04-17T11:05:02.786Z,1.51
2023-04-17T11:06:04.720Z,1.34
2023-04-17T11:07:06.505Z,1.22
2023-04-17T11:08:08.318Z,1.15
2023-04-17T11:09:10.123Z,1.23
2023-04-17T11:10:11.931Z,1.02
2023-04-17T11:11:13.947Z,1.32
2023-04-17T11:12:16.418Z,1.29
2023-04-17T11:13:18.074Z,1.51
2023-04-17T11:14:19.882Z,1.21
2023-04-17T11:15:21.682Z,1.55
2023-04-17T11:16:23.563Z,1.12
2023-04-17T11:17:25.322Z,1.26
2023-04-17T11:18:27.099Z,1.15
2023-04-17T11:19:28.890Z,1.25
2023-04-17T11:20:30.715Z,1.89
2023-04-17T11:21:32.545Z,1.59
2023-04-17T11:22:34.354Z,1.84
2023-04-17T11:23:36.147Z,1.54
2023-04-17T11:24:37.935Z,1.07
2023-04-17T11:25:39.789Z,1.20
2023-04-17T11:26:41.578Z,1.41
2023-04-17T11:27:43.364Z,1.31
2023-04-17T11:28:45.174Z,1.13
2023-04-17T11:29:46.995Z,1.22
2023-04-17T11:30:48.952Z,1.35
2023-04-17T11:31:50.925Z,1.68
2023-04-17T11:32:52.818Z,1.20
2023-04-17T11:33:54.551Z,1.55
2023-04-17T11:34:56.384Z,1.89
2023-04-17T11:35:58.233Z,1.48
2023-04-17T11:37:00.053Z,1.27
2023-04-17T11:38:01.824Z,1.16
2023-04-17T11:39:03.793Z,1.35
2023-04-17T11:40:05.750Z,1.52
2023-04-17T11:41:07.563Z,1.55
2023-04-17T11:42:09.307Z,1.33
2023-04-17T11:43:11.127Z,1.24
2023-04-17T11:44:12.898Z,1.16
2023-04-17T11:45:14.604Z,1.13
2023-04-17T11:46:16.511Z,1.46
2023-04-17T11:47:18.366Z,1.55
2023-04-17T11:48:20.155Z,1.25
2023-04-17T11:49:21.884Z,1.36
2023-04-17T11:50:23.786Z,1.92
2023-04-17T11:51:25.593Z,1.41
2023-04-17T11:52:27.330Z,1.27
2023-04-17T11:53:29.137Z,1.46
2023-04-17T11:54:30.919Z,1.66
2023-04-17T11:55:32.736Z,1.99
2023-04-17T11:56:34.531Z,1.83
2023-04-17T11:57:36.404Z,1.66
2023-04-17T11:58:38.334Z,1.34
2023-04-17T11:59:40.183Z,1.49
2023-04-17T12:00:42.025Z,1.86
2023-04-17T12:01:43.810Z,1.71
2023-04-17T12:02:45.771Z,1.49
2023-04-17T12:03:47.808Z,1.48
2023-04-17T12:04:49.895Z,1.17
2023-04-17T12:05:51.841Z,1.43
2023-04-17T12:06:53.694Z,1.44
2023-04-17T12:07:55.537Z,1.41
2023-04-17T12:08:57.444Z,1.93
2023-04-17T12:09:59.252Z,2.00
2023-04-17T12:11:01.054Z,1.86
2023-04-17T12:12:02.957Z,1.67
2023-04-17T12:13:04.793Z,1.49
2023-04-17T12:14:06.582Z,1.65
2023-04-17T12:15:08.410Z,1.33
2023-04-17T12:16:10.375Z,1.57
2023-04-17T12:17:12.463Z,1.37
2023-04-17T12:18:14.278Z,1.48
2023-04-17T12:19:16.092Z,1.47
2023-04-17T12:20:17.976Z,1.26
2023-04-17T12:21:19.811Z,1.40
2023-04-17T12:22:21.607Z,1.84
2023-04-17T12:23:23.437Z,1.43
2023-04-17T12:24:25.493Z,1.57
2023-04-17T12:25:27.292Z,1.23
2023-04-17T12:26:29.139Z,1.27
2023-04-17T12:27:31.143Z,1.20
2023-04-17T12:28:32.983Z,1.27
2023-04-17T12:29:43.835Z,1.56
2023-04-17T12:30:38.479Z,1.62
2023-04-17T12:31:40.336Z,1.55
2023-04-17T12:32:42.009Z,1.43
2023-04-17T12:33:43.839Z,1.67
2023-04-17T12:34:45.566Z,1.86
2023-04-17T12:35:47.386Z,1.54
2023-04-17T12:36:49.188Z,2.33
2023-04-17T12:37:50.994Z,1.20
2023-04-17T12:38:52.844Z,2.45
2023-04-17T12:39:54.637Z,1.74
2023-04-17T12:40:56.450Z,6.49
2023-04-17T12:41:58.246Z,6.22
2023-04-17T12:43:00.069Z,5.21
2023-04-17T12:44:01.998Z,1.85
2023-04-17T12:45:03.829Z,1.47
2023-04-17T12:46:05.638Z,1.81
2023-04-17T12:47:07.549Z,1.35
2023-04-17T12:48:09.260Z,2.07
2023-04-17T12:49:11.287Z,1.64
2023-04-17T12:50:13.224Z,2.08
2023-04-17T12:51:15.021Z,1.64
2023-04-17T12:52:16.987Z,2.36
2023-04-17T12:53:18.776Z,2.59
2023-04-17T12:54:20.588Z,2.31
2023-04-17T12:55:22.391Z,1.61
2023-04-17T12:56:24.187Z,1.91
2023-04-17T12:57:25.982Z,2.69
2023-04-17T12:58:27.788Z,1.83
2023-04-17T12:59:29.621Z,1.42
2023-04-17T13:00:31.486Z,1.67
2023-04-17T13:01:33.392Z,1.67
2023-04-17T13:02:35.419Z,2.05
2023-04-17T13:03:37.640Z,2.99
2023-04-17T13:04:39.666Z,2.23
2023-04-17T13:05:41.505Z,1.58
2023-04-17T13:06:43.299Z,1.65
2023-04-17T13:07:45.150Z,1.94
2023-04-17T13:08:46.912Z,2.13
2023-04-17T13:09:48.756Z,1.46
2023-04-17T13:10:50.607Z,1.86
2023-04-17T13:11:52.393Z,1.71
2023-04-17T13:12:54.184Z,1.74
2023-04-17T13:13:55.982Z,1.81
2023-04-17T13:14:57.808Z,1.70
2023-04-17T13:15:59.621Z,7.46
2023-04-17T13:17:01.561Z,6.14
2023-04-17T13:18:03.450Z,4.04
2023-04-17T13:19:05.316Z,5.95
2023-04-17T13:20:07.662Z,2.92
2023-04-17T13:21:09.566Z,2.13
2023-04-17T13:22:11.378Z,2.30
2023-04-17T13:23:13.167Z,2.02
2023-04-17T13:24:14.992Z,3.58
2023-04-17T13:25:16.814Z,2.06
2023-04-17T13:26:18.617Z,2.20
2023-04-17T13:27:20.411Z,2.10
2023-04-17T13:28:22.217Z,2.49
2023-04-17T13:29:24.014Z,3.15
2023-04-17T13:30:25.868Z,4.67
2023-04-17T13:31:27.748Z,2.35
2023-04-17T13:32:29.713Z,3.65
2023-04-17T13:33:31.493Z,2.31
2023-04-17T13:34:33.289Z,2.37
2023-04-17T13:35:35.118Z,2.64
2023-04-17T13:36:36.921Z,2.41
2023-04-17T13:37:38.701Z,2.11
2023-04-17T13:38:40.507Z,2.46
2023-04-17T13:39:42.229Z,2.34
2023-04-17T13:40:44.063Z,2.14
2023-04-17T13:41:45.953Z,2.34
2023-04-17T13:42:47.775Z,2.35
2023-04-17T13:43:49.587Z,2.13